CheckWX is a tool to help pilots better visualize weather data.  It is not intended as a substitute for an official pre-flight weather briefing.

12:36:38 UTC

KMCE METAR
Merced Regional / Macready Field Airport
Merced, California, USA
Current

31 mins ago

KMCE 291206Z AUTO 00000KT 3SM BR OVC002 10/09 A3010 RMK AO2 T01000089
Observed
Mar-29 @ 12:06 UTC
Visibility
3 SM
Flight Rules
LIFR
Conditions
Mist
Cloud Levels
  • Overcast at 200' AGL
Temperature
10°C / 50°F
Dewpoint
C / 48°F
Humidity
94%
Altimeter
30.1" Hg
Pressure
1019.32 hPa
Previous

2 hours ago

KMCE 291053Z AUTO 00000KT 5SM BR OVC050 11/09 A3011 RMK AO2 SLP197 T01060094
Observed
Mar-29 @ 10:53 UTC
Visibility
5 SM
Flight Rules
MVFR
Conditions
Mist
Cloud Levels
  • Overcast at 5,000' AGL
Temperature
11°C / 52°F
Dewpoint
C / 48°F
Humidity
88%
Altimeter
30.11" Hg
Pressure
1019.62 hPa
Previous

3 hours ago

KMCE 290953Z AUTO 00000KT 5SM BR BKN050 OVC065 11/09 A3013 RMK AO2 SLP202 T01060094
Observed
Mar-29 @ 09:53 UTC
Visibility
5 SM
Flight Rules
MVFR
Conditions
Mist
Cloud Levels
  • Broken at 5,000' AGL
  • Overcast at 6,500' AGL
Temperature
11°C / 52°F
Dewpoint
C / 48°F
Humidity
88%
Altimeter
30.13" Hg
Pressure
1020.32 hPa